Time;durP1;ratioP1;P1;durP2;ratioP2;P2;SDS_P1;SDS_P2;PMS_P1;PMS_P2;Temp;Humidity;BMP_temperature;BMP_pressure;BME280_temperature;BME280_humidity;BME280_pressure;Samples;Min_cycle;Max_cycle;Signal;HPM_P1;HPM_P2
2022/06/04 00:00:59;;;;;;;8.57;6.10;;;15.60;67.20;;;;;;2372640;56;21031;-76
2022/06/04 00:03:27;;;;;;;12.32;7.30;;;15.60;67.30;;;;;;2372419;56;21054;-76
2022/06/04 00:05:56;;;;;;;9.27;6.85;;;15.60;67.30;;;;;;2372187;56;21059;-76
2022/06/04 00:08:24;;;;;;;10.88;6.85;;;15.60;67.10;;;;;;2372142;56;21513;-75
2022/06/04 00:16:27;;;;;;;11.48;7.93;;;15.60;66.80;;;;;;2395170;52;21039;-76
2022/06/04 00:18:54;;;;;;;13.62;7.82;;;15.50;66.80;;;;;;2371817;56;21648;-75
2022/06/04 00:21:23;;;;;;;10.35;7.75;;;15.50;66.90;;;;;;2372453;56;21130;-75
2022/06/04 00:23:51;;;;;;;9.75;7.82;;;15.50;66.90;;;;;;2372126;56;21059;-75
2022/06/04 00:26:19;;;;;;;11.68;8.48;;;15.40;67.10;;;;;;2372152;56;21758;-75
2022/06/04 00:28:47;;;;;;;9.13;7.30;;;15.40;67.10;;;;;;2372190;56;21047;-75
2022/06/04 00:31:17;;;;;;;10.13;8.00;;;15.40;67.30;;;;;;2372622;56;21054;-75
2022/06/04 00:33:45;;;;;;;14.40;9.10;;;15.30;67.50;;;;;;2372422;56;21039;-75
2022/06/04 00:36:13;;;;;;;13.32;8.52;;;15.30;67.50;;;;;;2371902;56;21054;-75
2022/06/04 00:38:40;;;;;;;10.43;8.02;;;15.20;68.40;;;;;;2373010;56;21027;-75
2022/06/04 00:44:00;;;;;;;10.10;7.90;;;15.20;67.80;;;;;;2512645;53;22050;-74
2022/06/04 00:47:06;;;;;;;11.02;7.50;;;15.00;68.60;;;;;;2345592;57;21061;-76
2022/06/04 00:49:33;;;;;;;12.40;7.97;;;15.00;69.10;;;;;;2370631;56;21114;-75
2022/06/04 00:52:01;;;;;;;13.27;8.20;;;14.90;68.90;;;;;;2373950;56;21576;-76
2022/06/04 00:54:29;;;;;;;12.85;7.75;;;14.90;69.00;;;;;;2373467;56;21110;-76
2022/06/04 00:57:20;;;;;;;14.02;7.50;;;14.90;69.20;;;;;;2372928;56;21122;-76
2022/06/04 00:59:57;;;;;;;11.73;7.55;;;14.90;69.20;;;;;;2374047;56;21042;-77
2022/06/04 01:02:34;;;;;;;7.50;6.75;;;14.90;69.00;;;;;;2374349;56;21055;-76
2022/06/04 01:05:18;;;;;;;11.52;7.10;;;14.90;69.10;;;;;;2373104;56;21039;-76
2022/06/04 01:10:41;;;;;;;12.18;7.85;;;14.90;69.00;;;;;;2354564;57;23140;-74
2022/06/04 01:13:22;;;;;;;12.10;7.43;;;14.90;69.00;;;;;;2345330;57;21171;-76
2022/06/04 01:15:58;;;;;;;9.55;7.18;;;14.90;68.40;;;;;;2344959;57;21113;-76
2022/06/04 01:18:41;;;;;;;11.40;7.87;;;14.90;69.00;;;;;;2357461;56;21724;-76
2022/06/04 01:21:22;;;;;;;16.23;8.02;;;14.80;69.00;;;;;;2373259;56;21055;-74
2022/06/04 01:27:05;;;;;;;9.18;6.50;;;14.80;69.20;;;;;;2353859;57;22548;-74
2022/06/04 01:29:38;;;;;;;11.57;7.10;;;14.80;69.50;;;;;;2313026;58;21115;-74
2022/06/04 01:32:11;;;;;;;19.23;8.98;;;14.80;69.10;;;;;;2410585;54;21043;-74
2022/06/04 01:34:48;;;;;;;9.90;6.75;;;14.80;68.90;;;;;;2345572;54;21546;-74
2022/06/04 01:42:47;;;;;;;12.05;6.68;;;14.70;67.90;;;;;;2345302;54;21575;-74
2022/06/04 01:45:19;;;;;;;10.95;8.05;;;14.70;67.80;;;;;;2345577;57;21053;-76
2022/06/04 01:47:48;;;;;;;10.30;8.13;;;14.70;68.10;;;;;;2350612;56;21051;-76
2022/06/04 01:50:20;;;;;;;16.15;7.93;;;14.70;68.50;;;;;;2372329;56;21086;-76
2022/06/04 01:52:50;;;;;;;9.20;7.33;;;14.60;68.90;;;;;;2373942;56;21037;-76
2022/06/04 01:55:22;;;;;;;10.23;7.15;;;14.60;68.70;;;;;;2372588;56;21613;-76
2022/06/04 01:57:56;;;;;;;12.13;8.50;;;14.60;68.70;;;;;;2372997;56;21114;-76
2022/06/04 02:00:27;;;;;;;9.02;7.05;;;14.60;68.60;;;;;;2465969;52;21129;-76
2022/06/04 02:02:59;;;;;;;8.65;7.28;;;14.60;68.20;;;;;;2370766;56;21123;-76
2022/06/04 02:05:31;;;;;;;13.68;7.85;;;14.50;67.90;;;;;;2399326;52;21106;-76
2022/06/04 02:08:01;;;;;;;12.70;8.73;;;14.50;68.20;;;;;;2369720;56;21126;-76
2022/06/04 02:10:32;;;;;;;13.62;8.18;;;14.50;68.80;;;;;;2369522;56;21212;-76
2022/06/04 02:13:04;;;;;;;9.85;6.70;;;14.50;69.10;;;;;;2368702;56;21023;-75
2022/06/04 02:15:40;;;;;;;12.37;7.95;;;14.40;69.30;;;;;;2368782;56;21819;-76
2022/06/04 02:18:10;;;;;;;12.77;7.47;;;14.40;69.50;;;;;;2368324;56;21141;-76
2022/06/04 02:20:38;;;;;;;13.05;8.73;;;14.40;69.40;;;;;;2369745;56;21039;-76
2022/06/04 02:23:06;;;;;;;13.38;7.55;;;14.40;69.60;;;;;;2376707;52;21708;-75
2022/06/04 02:25:33;;;;;;;11.73;7.65;;;14.30;69.70;;;;;;2369321;53;21058;-76
2022/06/04 02:28:02;;;;;;;11.60;8.02;;;14.30;69.90;;;;;;2369468;56;21142;-75
2022/06/04 02:30:37;;;;;;;10.35;7.55;;;14.30;69.80;;;;;;2369798;56;21165;-76
2022/06/04 02:33:13;;;;;;;11.98;7.32;;;14.30;69.80;;;;;;2410985;52;21063;-76
2022/06/04 02:35:50;;;;;;;14.50;8.40;;;14.30;69.80;;;;;;2369846;56;21058;-76
2022/06/04 02:38:25;;;;;;;12.77;8.23;;;14.30;69.90;;;;;;2370041;56;21039;-76
2022/06/04 02:40:58;;;;;;;12.65;8.15;;;14.20;70.60;;;;;;2370167;56;21554;-76
2022/06/04 02:43:36;;;;;;;14.73;9.25;;;14.30;70.00;;;;;;2368444;56;21644;-76
2022/06/04 02:46:17;;;;;;;11.40;8.48;;;14.20;69.60;;;;;;2368711;56;21122;-76
2022/06/04 02:48:49;;;;;;;14.63;8.93;;;14.20;69.70;;;;;;2386036;52;21114;-74
2022/06/04 02:51:20;;;;;;;16.17;8.93;;;14.20;69.50;;;;;;2368928;56;21121;-76
2022/06/04 02:53:49;;;;;;;13.00;8.60;;;14.20;69.30;;;;;;2379479;52;21106;-76
2022/06/04 02:58:56;;;;;;;17.05;9.35;;;14.20;69.40;;;;;;2322417;57;20079;-74
2022/06/04 03:01:26;;;;;;;13.85;8.63;;;14.10;69.90;;;;;;2314279;58;21106;-74
2022/06/04 03:03:54;;;;;;;14.05;8.93;;;14.10;70.10;;;;;;2326308;54;21062;-76
2022/06/04 03:06:25;;;;;;;11.05;8.98;;;14.10;70.10;;;;;;2347812;54;21042;-76
2022/06/04 03:08:53;;;;;;;13.20;8.15;;;14.00;69.70;;;;;;2324896;54;21047;-75
2022/06/04 03:11:21;;;;;;;12.75;8.75;;;14.00;69.30;;;;;;2315411;58;21027;-75
2022/06/04 03:13:48;;;;;;;15.25;9.13;;;14.00;69.50;;;;;;2314369;58;21051;-76
2022/06/04 03:16:16;;;;;;;12.43;8.75;;;14.00;69.50;;;;;;2314456;58;21644;-76
2022/06/04 03:18:44;;;;;;;16.30;9.43;;;14.00;69.40;;;;;;2313900;58;21526;-75
2022/06/04 03:21:12;;;;;;;16.00;9.50;;;14.00;69.90;;;;;;2313995;58;21189;-76
2022/06/04 03:23:39;;;;;;;14.30;9.43;;;13.90;70.30;;;;;;2313938;58;21050;-76
2022/06/04 03:26:07;;;;;;;16.65;9.52;;;13.90;70.70;;;;;;2314545;58;21313;-76
2022/06/04 03:28:34;;;;;;;16.20;9.95;;;13.90;71.00;;;;;;2314132;58;21552;-76
2022/06/04 03:31:01;;;;;;;17.80;9.93;;;13.80;71.10;;;;;;2347931;54;21125;-76
2022/06/04 03:33:29;;;;;;;21.02;11.50;;;13.80;71.50;;;;;;2313691;58;21102;-76
2022/06/04 03:38:32;;;;;;;19.90;10.82;;;13.70;72.80;;;;;;2337914;57;22131;-74
2022/06/04 03:41:00;;;;;;;18.85;11.30;;;13.70;72.30;;;;;;2343040;57;21145;-75
2022/06/04 03:43:27;;;;;;;20.62;11.12;;;13.70;72.80;;;;;;2342817;57;21122;-75
2022/06/04 03:45:54;;;;;;;15.13;11.25;;;13.60;73.10;;;;;;2341751;57;21127;-76
2022/06/04 03:48:22;;;;;;;19.85;11.73;;;13.60;73.50;;;;;;2341912;57;22755;-75
2022/06/04 03:50:50;;;;;;;21.15;12.77;;;13.60;73.70;;;;;;2342174;57;21033;-76
2022/06/04 03:53:17;;;;;;;19.80;11.75;;;13.60;74.10;;;;;;2342028;57;21113;-76
2022/06/04 03:55:44;;;;;;;22.30;13.73;;;13.60;74.30;;;;;;2342026;57;21049;-76
2022/06/04 03:58:12;;;;;;;23.77;13.20;;;13.60;74.50;;;;;;2341634;57;21106;-75
2022/06/04 04:00:41;;;;;;;22.80;11.57;;;13.60;74.90;;;;;;2341595;57;21592;-76
2022/06/04 04:05:48;;;;;;;20.73;15.00;;;13.60;75.10;;;;;;2330758;57;27818;-76
2022/06/04 04:08:16;;;;;;;19.67;13.27;;;13.50;78.10;;;;;;2341757;57;21138;-76
2022/06/04 04:10:44;;;;;;;21.55;12.95;;;13.70;77.30;;;;;;2385800;52;21537;-73
2022/06/04 04:13:13;;;;;;;17.87;12.00;;;13.70;76.60;;;;;;2372331;56;21174;-73
2022/06/04 04:15:41;;;;;;;23.60;12.45;;;13.80;76.30;;;;;;2371768;56;21064;-72
2022/06/04 04:18:08;;;;;;;22.70;12.40;;;13.80;76.00;;;;;;2371529;56;21103;-72
2022/06/04 04:20:38;;;;;;;23.00;13.85;;;13.90;75.90;;;;;;2370188;56;21052;-74
2022/06/04 04:23:08;;;;;;;22.23;13.25;;;13.90;75.60;;;;;;2372308;56;21084;-74
2022/06/04 04:25:37;;;;;;;28.50;15.18;;;13.80;75.60;;;;;;2371104;56;21072;-74
2022/06/04 04:28:05;;;;;;;32.10;14.93;;;13.80;75.60;;;;;;2370809;56;21131;-73
2022/06/04 04:33:08;;;;;;;24.17;16.17;;;13.80;75.70;;;;;;2332118;57;29391;-72
2022/06/04 04:35:36;;;;;;;25.65;14.87;;;13.60;78.50;;;;;;2343115;57;21069;-71
2022/06/04 04:38:04;;;;;;;23.48;13.52;;;13.70;77.70;;;;;;2350644;56;21114;-72
2022/06/04 04:40:32;;;;;;;22.85;13.80;;;13.80;77.00;;;;;;2371276;56;22026;-74
2022/06/04 04:42:59;;;;;;;23.40;13.85;;;13.90;76.50;;;;;;2371386;56;21087;-74
2022/06/04 04:45:28;;;;;;;26.70;14.63;;;13.90;76.20;;;;;;2370997;56;22011;-74
2022/06/04 04:47:56;;;;;;;26.27;16.02;;;14.00;76.20;;;;;;2371279;56;21083;-72
2022/06/04 04:50:27;;;;;;;23.27;14.65;;;13.90;76.20;;;;;;2370599;56;21048;-74
2022/06/04 04:52:57;;;;;;;23.85;14.45;;;13.90;76.30;;;;;;2370489;56;21059;-73
2022/06/04 04:55:25;;;;;;;24.52;15.40;;;13.90;76.40;;;;;;2370453;56;21063;-73
2022/06/04 04:57:52;;;;;;;23.90;14.45;;;13.90;76.60;;;;;;2370861;56;21051;-72
2022/06/04 05:00:21;;;;;;;26.60;14.23;;;13.80;76.90;;;;;;2623973;52;21123;-72
2022/06/04 05:02:48;;;;;;;30.05;15.98;;;13.80;77.10;;;;;;2370278;56;21210;-72
2022/06/04 05:05:15;;;;;;;25.23;14.65;;;13.70;77.50;;;;;;2370879;56;21063;-73
2022/06/04 05:07:44;;;;;;;31.73;14.40;;;13.70;77.90;;;;;;2370376;56;21087;-74
2022/06/04 05:10:13;;;;;;;31.30;16.65;;;13.60;78.20;;;;;;2624985;52;21332;-73
2022/06/04 05:12:40;;;;;;;29.20;14.52;;;13.60;78.30;;;;;;2370482;56;21091;-73
2022/06/04 05:15:10;;;;;;;26.17;14.68;;;13.60;78.30;;;;;;2369776;56;21071;-73
2022/06/04 05:17:38;;;;;;;24.98;13.85;;;13.60;78.60;;;;;;2623087;52;21124;-72
2022/06/04 05:20:07;;;;;;;24.75;14.60;;;13.60;78.70;;;;;;2627773;52;21051;-74
2022/06/04 05:22:34;;;;;;;23.48;13.15;;;13.60;78.50;;;;;;2374972;56;21123;-73
2022/06/04 05:25:01;;;;;;;28.73;12.65;;;13.60;78.40;;;;;;2375127;56;21032;-74
2022/06/04 05:27:29;;;;;;;24.23;14.13;;;13.70;79.30;;;;;;2373868;56;21118;-74
2022/06/04 05:29:56;;;;;;;28.52;13.60;;;13.70;78.60;;;;;;2627939;52;21115;-74
2022/06/04 05:32:24;;;;;;;22.05;12.13;;;13.70;78.70;;;;;;2374940;56;21052;-74
2022/06/04 05:34:51;;;;;;;23.50;11.95;;;13.80;78.60;;;;;;2375142;56;21296;-73
2022/06/04 05:37:18;;;;;;;15.35;9.70;;;13.80;78.40;;;;;;2374881;56;22092;-74
2022/06/04 05:39:46;;;;;;;23.12;11.20;;;13.90;78.40;;;;;;2375178;56;21052;-74
2022/06/04 05:44:50;;;;;;;19.50;11.18;;;14.00;78.30;;;;;;2327531;57;22178;-74
2022/06/04 05:47:19;;;;;;;16.20;11.15;;;14.10;77.90;;;;;;2346027;57;21041;-74
2022/06/04 05:49:46;;;;;;;25.92;11.57;;;14.10;77.50;;;;;;2374225;56;21026;-74
2022/06/04 05:52:14;;;;;;;18.23;10.30;;;14.10;77.10;;;;;;2375391;56;21106;-74
2022/06/04 05:54:41;;;;;;;19.70;11.70;;;14.20;77.30;;;;;;2628647;52;21019;-74
2022/06/04 05:57:08;;;;;;;18.67;10.60;;;14.20;77.20;;;;;;2374147;56;21545;-72
2022/06/04 05:59:36;;;;;;;18.35;11.12;;;14.20;77.30;;;;;;2374117;56;21058;-75
2022/06/04 06:02:04;;;;;;;20.85;11.30;;;14.20;77.50;;;;;;2375509;56;21113;-75
2022/06/04 06:04:32;;;;;;;17.70;10.65;;;14.30;77.50;;;;;;2375106;56;21055;-76
2022/06/04 06:07:00;;;;;;;20.12;10.43;;;14.40;77.10;;;;;;2373846;56;21046;-75
2022/06/04 06:09:28;;;;;;;17.20;10.77;;;14.40;77.50;;;;;;2374605;56;21042;-77
2022/06/04 06:11:56;;;;;;;18.25;11.32;;;14.50;77.40;;;;;;2374641;56;21050;-75
2022/06/04 06:14:24;;;;;;;17.40;10.45;;;14.60;77.30;;;;;;2374938;56;21050;-76
2022/06/04 06:16:52;;;;;;;25.62;12.65;;;14.70;77.20;;;;;;2374453;56;21050;-74
2022/06/04 06:19:22;;;;;;;18.10;9.77;;;14.70;76.60;;;;;;2627852;52;21117;-73
2022/06/04 06:21:50;;;;;;;18.12;11.32;;;14.70;76.60;;;;;;2374501;56;21030;-74
2022/06/04 06:24:20;;;;;;;19.23;11.20;;;14.70;76.40;;;;;;2374442;56;21038;-74
2022/06/04 06:26:52;;;;;;;17.58;10.65;;;14.80;76.50;;;;;;2374363;56;21133;-77
2022/06/04 06:29:20;;;;;;;16.48;10.15;;;14.80;76.60;;;;;;2374089;56;21023;-76
2022/06/04 06:31:47;;;;;;;15.10;9.65;;;14.90;76.50;;;;;;2372992;56;21035;-75
2022/06/04 06:34:15;;;;;;;18.55;10.05;;;15.00;76.30;;;;;;2374382;56;21063;-75
2022/06/04 06:36:43;;;;;;;16.58;9.63;;;15.00;76.30;;;;;;2374303;56;21035;-75
2022/06/04 06:39:10;;;;;;;16.20;9.63;;;15.10;76.10;;;;;;2627593;52;21027;-76
2022/06/04 06:41:38;;;;;;;16.08;10.52;;;15.20;76.10;;;;;;2626853;52;21110;-74
2022/06/04 06:44:06;;;;;;;18.98;9.85;;;15.20;76.00;;;;;;2627127;52;21560;-73
2022/06/04 06:46:37;;;;;;;19.75;11.02;;;15.30;76.10;;;;;;2370624;56;21162;-72
2022/06/04 06:49:07;;;;;;;24.95;11.35;;;15.30;75.70;;;;;;2372520;56;21106;-74
2022/06/04 06:51:38;;;;;;;18.35;10.38;;;15.40;75.70;;;;;;2374288;56;21521;-75
2022/06/04 06:54:05;;;;;;;19.42;9.95;;;15.50;76.10;;;;;;2374422;56;21019;-74
2022/06/04 06:56:37;;;;;;;18.77;10.23;;;15.60;75.60;;;;;;2372367;56;21517;-72
2022/06/04 06:59:05;;;;;;;14.07;9.57;;;15.70;75.10;;;;;;2372903;56;21027;-74
2022/06/04 07:01:33;;;;;;;14.15;10.18;;;15.80;75.10;;;;;;2372366;56;21134;-72
2022/06/04 07:04:02;;;;;;;16.20;10.48;;;15.80;74.60;;;;;;2373049;56;21097;-73
2022/06/04 07:06:32;;;;;;;15.13;9.30;;;15.90;74.60;;;;;;2371512;56;21116;-76
2022/06/04 07:09:01;;;;;;;12.25;9.63;;;16.00;74.50;;;;;;2626964;52;21053;-76
2022/06/04 07:11:29;;;;;;;16.85;10.30;;;16.00;74.00;;;;;;2373124;56;21010;-76
2022/06/04 07:13:56;;;;;;;15.55;9.95;;;16.00;73.50;;;;;;2373419;56;21059;-75
2022/06/04 07:16:24;;;;;;;16.45;10.48;;;16.00;72.60;;;;;;2373094;56;21723;-76
2022/06/04 07:18:51;;;;;;;15.90;8.63;;;16.00;72.30;;;;;;2372996;56;21122;-72
2022/06/04 07:21:19;;;;;;;15.45;9.52;;;16.10;72.50;;;;;;2371985;56;21054;-75
2022/06/04 07:23:47;;;;;;;17.75;9.75;;;16.10;72.10;;;;;;2373384;56;21046;-75
2022/06/04 07:26:15;;;;;;;10.93;7.95;;;16.20;71.80;;;;;;2625240;52;21620;-75
2022/06/04 07:28:43;;;;;;;13.38;8.77;;;16.20;71.50;;;;;;2372403;56;21031;-74
2022/06/04 07:31:12;;;;;;;14.50;9.70;;;16.20;71.60;;;;;;2372376;56;21027;-74
2022/06/04 07:33:41;;;;;;;20.92;10.85;;;16.30;71.30;;;;;;2372758;56;21335;-74
2022/06/04 07:36:14;;;;;;;17.15;10.05;;;16.30;70.80;;;;;;2372870;56;22291;-74
2022/06/04 07:38:41;;;;;;;15.27;8.90;;;16.20;71.20;;;;;;2627407;52;21035;-75
2022/06/04 07:41:14;;;;;;;11.93;8.40;;;16.20;70.80;;;;;;2373979;56;21545;-74
2022/06/04 07:43:42;;;;;;;14.13;9.23;;;16.20;71.10;;;;;;2627618;52;21061;-74
2022/06/04 07:46:09;;;;;;;14.15;8.95;;;16.20;71.10;;;;;;2373347;56;21047;-74
2022/06/04 07:48:36;;;;;;;14.60;9.27;;;16.20;70.90;;;;;;2374014;56;21969;-74
2022/06/04 07:51:05;;;;;;;18.40;9.07;;;16.20;70.90;;;;;;2627348;52;21070;-75
2022/06/04 07:53:32;;;;;;;16.08;9.00;;;16.30;70.90;;;;;;2374372;56;21026;-74
2022/06/04 07:56:05;;;;;;;14.38;8.82;;;16.30;71.90;;;;;;2374002;56;21110;-74
2022/06/04 07:58:32;;;;;;;15.45;8.38;;;16.40;71.40;;;;;;2374645;56;21075;-75
2022/06/04 08:01:01;;;;;;;13.90;8.30;;;16.50;70.50;;;;;;2374324;56;21098;-74
2022/06/04 08:03:28;;;;;;;10.35;7.72;;;16.50;69.50;;;;;;2373831;56;21047;-74
2022/06/04 08:05:55;;;;;;;13.48;6.78;;;16.50;68.60;;;;;;2373644;56;21042;-72
2022/06/04 08:08:23;;;;;;;11.30;7.60;;;16.50;68.10;;;;;;2373255;56;21039;-74
2022/06/04 08:10:50;;;;;;;10.57;7.90;;;16.50;67.70;;;;;;2374277;56;21110;-73
2022/06/04 08:13:19;;;;;;;11.55;7.95;;;16.50;67.80;;;;;;2374042;56;21074;-74
2022/06/04 08:15:47;;;;;;;17.08;10.10;;;16.50;68.10;;;;;;2373827;56;21046;-72
2022/06/04 08:18:14;;;;;;;12.70;8.40;;;16.50;68.00;;;;;;2373602;56;21051;-75
2022/06/04 08:20:42;;;;;;;16.95;8.50;;;16.60;68.40;;;;;;2374070;56;21102;-74
2022/06/04 08:23:10;;;;;;;13.25;8.30;;;16.60;69.10;;;;;;2374228;56;21051;-75
2022/06/04 08:25:39;;;;;;;14.73;7.90;;;16.70;69.10;;;;;;2373693;56;21062;-72
2022/06/04 08:28:07;;;;;;;15.10;7.28;;;16.70;68.90;;;;;;2627425;52;21034;-75
2022/06/04 08:30:35;;;;;;;9.85;6.05;;;16.80;68.10;;;;;;2374426;56;21154;-74
2022/06/04 08:33:03;;;;;;;9.95;7.03;;;16.80;68.20;;;;;;2374071;56;21028;-74
2022/06/04 08:35:31;;;;;;;11.98;8.93;;;16.90;68.70;;;;;;2373591;56;21122;-74
2022/06/04 08:37:58;;;;;;;10.95;7.45;;;16.90;67.50;;;;;;2373926;56;21668;-73
2022/06/04 08:40:32;;;;;;;13.82;7.43;;;16.90;67.30;;;;;;2374315;56;21066;-74
2022/06/04 08:43:11;;;;;;;15.27;8.10;;;17.00;67.70;;;;;;2374186;56;21031;-74
2022/06/04 08:45:39;;;;;;;9.50;7.50;;;17.10;68.20;;;;;;2373706;56;21094;-74
2022/06/04 08:48:15;;;;;;;13.85;7.57;;;17.10;66.90;;;;;;2374195;56;21110;-72
2022/06/04 08:50:43;;;;;;;10.05;7.47;;;17.10;67.60;;;;;;2373738;56;21517;-74
2022/06/04 08:53:17;;;;;;;11.27;6.90;;;17.10;67.40;;;;;;2374376;56;21047;-75
2022/06/04 08:58:51;;;;;;;10.13;7.30;;;17.10;67.20;;;;;;2374014;56;21061;-75
2022/06/04 09:01:26;;;;;;;12.07;8.02;;;17.20;66.90;;;;;;2374220;56;21112;-75
2022/06/04 09:04:01;;;;;;;13.62;7.37;;;17.10;66.50;;;;;;2374126;56;21030;-75
2022/06/04 09:06:38;;;;;;;13.13;7.72;;;17.10;67.10;;;;;;2373770;56;21035;-73
2022/06/04 09:09:13;;;;;;;9.82;6.62;;;17.20;66.40;;;;;;2373719;56;21039;-74
2022/06/04 09:11:48;;;;;;;10.73;6.75;;;17.20;65.90;;;;;;2374281;56;21353;-75
2022/06/04 09:14:31;;;;;;;9.35;7.28;;;17.20;66.40;;;;;;2374225;56;21038;-75
2022/06/04 09:17:02;;;;;;;11.95;7.57;;;17.20;66.60;;;;;;2373901;56;21019;-75
2022/06/04 09:19:35;;;;;;;10.70;6.93;;;17.20;66.90;;;;;;2374254;56;21105;-73
2022/06/04 09:22:11;;;;;;;10.88;7.40;;;17.30;66.50;;;;;;2374393;56;21031;-74
2022/06/04 09:24:39;;;;;;;10.25;6.75;;;17.30;65.70;;;;;;2372922;56;21047;-74
2022/06/04 09:27:16;;;;;;;11.85;7.78;;;17.30;65.70;;;;;;2627114;52;21094;-75
2022/06/04 09:29:58;;;;;;;11.32;6.97;;;17.30;66.00;;;;;;2374133;56;21094;-72
2022/06/04 09:32:44;;;;;;;12.70;6.20;;;17.30;64.30;;;;;;2374121;56;21090;-73
2022/06/04 09:35:14;;;;;;;10.15;6.85;;;17.30;64.40;;;;;;2374105;56;21098;-73
2022/06/04 09:37:46;;;;;;;10.63;6.50;;;17.40;65.10;;;;;;2627380;52;21023;-75
2022/06/04 09:40:26;;;;;;;8.43;6.50;;;17.40;64.40;;;;;;2373904;56;21059;-75
2022/06/04 09:43:05;;;;;;;11.12;6.95;;;17.40;63.80;;;;;;2373573;56;21031;-73
2022/06/04 09:45:32;;;;;;;11.30;6.93;;;17.40;64.20;;;;;;2626762;52;21022;-74
2022/06/04 09:48:00;;;;;;;9.02;6.68;;;17.50;64.70;;;;;;2374384;56;21071;-75
2022/06/04 09:50:31;;;;;;;10.45;7.12;;;17.50;65.30;;;;;;2374176;56;21098;-74
2022/06/04 09:53:18;;;;;;;9.57;5.85;;;17.50;66.00;;;;;;2374552;56;21288;-75
2022/06/04 09:55:49;;;;;;;8.80;5.60;;;17.60;66.10;;;;;;2373773;56;21030;-75
2022/06/04 09:58:25;;;;;;;10.60;7.03;;;17.70;66.40;;;;;;2373798;56;21078;-75
2022/06/04 10:00:59;;;;;;;7.65;5.45;;;17.70;65.90;;;;;;2373335;56;21600;-75
2022/06/04 10:03:28;;;;;;;12.23;6.37;;;17.80;64.90;;;;;;2627352;52;21082;-75
2022/06/04 10:06:03;;;;;;;9.95;6.10;;;17.80;64.10;;;;;;2626014;52;21029;-78
2022/06/04 10:09:55;;;;;;;7.37;5.62;;;17.90;65.20;;;;;;2625264;52;21058;-74
2022/06/04 10:13:42;;;;;;;11.32;6.03;;;17.90;64.20;;;;;;2286671;54;21568;-76
2022/06/04 10:16:18;;;;;;;8.35;5.60;;;18.00;62.10;;;;;;2214408;61;21079;-75
2022/06/04 10:18:58;;;;;;;7.72;5.55;;;18.00;61.20;;;;;;2236027;60;21131;-75
2022/06/04 10:21:29;;;;;;;8.75;5.55;;;18.00;61.80;;;;;;2252404;60;21083;-76
2022/06/04 10:23:58;;;;;;;9.15;5.78;;;18.00;62.70;;;;;;2252706;60;21577;-77
2022/06/04 10:26:54;;;;;;;12.80;6.20;;;18.00;63.80;;;;;;2275821;56;21603;-77
2022/06/04 10:29:58;;;;;;;8.77;5.82;;;18.10;63.00;;;;;;2252746;60;21087;-76
2022/06/04 10:32:37;;;;;;;8.32;5.85;;;18.10;62.70;;;;;;2252806;60;21115;-75
2022/06/04 10:35:13;;;;;;;9.40;6.37;;;18.20;62.80;;;;;;2253199;60;21554;-74
2022/06/04 10:37:50;;;;;;;11.95;6.85;;;18.20;62.30;;;;;;2257910;56;21059;-75
2022/06/04 10:40:39;;;;;;;7.70;5.20;;;18.30;63.50;;;;;;2253449;60;21095;-74
2022/06/04 10:43:25;;;;;;;7.45;5.03;;;18.30;63.70;;;;;;2253027;60;21602;-76
2022/06/04 10:45:59;;;;;;;8.65;5.20;;;18.40;63.70;;;;;;2251901;60;21067;-76
2022/06/04 10:48:39;;;;;;;8.13;4.72;;;18.40;61.40;;;;;;2251854;60;21362;-77
2022/06/04 10:51:27;;;;;;;8.13;5.25;;;18.40;61.00;;;;;;2252873;60;21063;-76
2022/06/04 10:54:05;;;;;;;7.15;4.60;;;18.50;61.70;;;;;;2344182;56;21083;-78
2022/06/04 10:56:37;;;;;;;8.65;5.15;;;18.60;61.30;;;;;;2252130;60;21068;-77
2022/06/04 10:59:12;;;;;;;5.57;3.67;;;18.70;62.00;;;;;;2252720;60;21091;-75
2022/06/04 11:01:46;;;;;;;6.47;4.95;;;18.80;61.80;;;;;;2252273;60;21139;-77
2022/06/04 11:04:23;;;;;;;7.37;4.37;;;18.80;60.80;;;;;;2251819;60;21150;-76
2022/06/04 11:06:55;;;;;;;6.37;4.03;;;18.90;60.50;;;;;;2277882;56;21130;-75
2022/06/04 11:09:29;;;;;;;8.77;4.30;;;19.10;59.80;;;;;;2254520;56;21621;-75
2022/06/04 11:12:01;;;;;;;6.22;4.60;;;19.20;58.40;;;;;;2251971;60;21039;-75
2022/06/04 11:14:39;;;;;;;7.50;5.00;;;19.30;57.70;;;;;;2252087;60;21055;-76
2022/06/04 11:17:14;;;;;;;5.40;3.80;;;19.40;58.40;;;;;;2251928;60;21115;-76
2022/06/04 11:19:55;;;;;;;6.07;4.32;;;19.70;58.70;;;;;;2252266;60;21092;-76
2022/06/04 11:22:28;;;;;;;5.97;4.20;;;19.80;58.90;;;;;;2253057;60;21154;-75
2022/06/04 11:25:01;;;;;;;7.35;4.25;;;19.90;57.90;;;;;;2253454;60;21080;-76
2022/06/04 11:27:34;;;;;;;7.03;4.40;;;20.10;57.40;;;;;;2252973;60;21072;-79
2022/06/04 11:30:06;;;;;;;5.70;4.10;;;20.20;57.60;;;;;;2253625;60;21222;-80
2022/06/04 11:32:44;;;;;;;6.20;3.72;;;20.40;56.20;;;;;;2252810;60;21084;-78
2022/06/04 11:35:25;;;;;;;6.87;3.80;;;20.60;56.10;;;;;;2253539;60;21087;-77
2022/06/04 11:38:26;;;;;;;5.40;3.10;;;20.70;55.30;;;;;;2274010;56;21112;-77
2022/06/04 11:41:05;;;;;;;4.55;3.72;;;20.80;53.40;;;;;;2254336;60;21228;-78
2022/06/04 11:43:46;;;;;;;5.15;3.28;;;20.90;53.10;;;;;;2254568;60;21062;-78
2022/06/04 11:46:27;;;;;;;3.65;2.95;;;21.00;54.60;;;;;;2254373;60;21091;-77
2022/06/04 11:49:06;;;;;;;5.32;2.85;;;21.20;55.10;;;;;;2253680;60;21146;-78
2022/06/04 11:52:03;;;;;;;4.60;3.45;;;21.30;53.30;;;;;;2254146;60;21060;-77
2022/06/04 11:54:47;;;;;;;5.70;3.30;;;21.40;52.70;;;;;;2254725;60;21167;-78
2022/06/04 11:57:24;;;;;;;3.95;2.97;;;21.60;53.00;;;;;;2254243;56;21094;-78
2022/06/04 12:00:05;;;;;;;4.70;3.12;;;21.70;53.60;;;;;;2259645;56;21154;-78
2022/06/04 12:02:43;;;;;;;4.30;2.97;;;21.90;52.90;;;;;;2254257;60;21139;-78
2022/06/04 12:05:22;;;;;;;4.60;3.28;;;22.10;52.90;;;;;;2269583;56;21139;-77
2022/06/04 12:07:54;;;;;;;10.70;3.17;;;22.20;51.80;;;;;;2254703;60;21095;-78
2022/06/04 12:10:41;;;;;;;4.78;3.17;;;22.20;51.80;;;;;;2266117;56;21100;-78
2022/06/04 12:13:16;;;;;;;3.72;3.00;;;22.30;51.50;;;;;;2267154;56;21138;-78
2022/06/04 12:15:50;;;;;;;4.03;2.78;;;22.50;51.10;;;;;;2281080;56;21099;-79
2022/06/04 12:18:27;;;;;;;4.95;2.87;;;22.60;51.30;;;;;;2254646;60;21565;-78
2022/06/04 12:26:39;;;;;;;5.07;3.08;;;22.90;50.60;;;;;;2253676;60;21015;-76
2022/06/04 12:29:32;;;;;;;4.75;2.65;;;22.90;49.70;;;;;;2258580;56;21719;-79
2022/06/04 12:32:02;;;;;;;9.75;2.95;;;23.00;48.70;;;;;;2253311;60;21138;-81
2022/06/04 12:34:34;;;;;;;5.07;2.53;;;23.10;49.40;;;;;;2253167;60;21083;-81
2022/06/04 12:37:04;;;;;;;5.28;2.95;;;23.20;49.40;;;;;;2261338;56;21526;-82
2022/06/04 12:39:36;;;;;;;3.45;2.75;;;23.30;49.60;;;;;;2253622;60;21148;-82
2022/06/04 12:42:13;;;;;;;3.35;2.30;;;23.40;49.70;;;;;;2253591;60;21151;-79
2022/06/04 12:44:54;;;;;;;3.47;2.45;;;23.40;49.90;;;;;;2253553;60;21127;-79
2022/06/04 12:47:25;;;;;;;4.80;2.37;;;23.50;48.30;;;;;;2252784;57;21107;-81
2022/06/04 12:49:57;;;;;;;4.05;2.67;;;23.60;48.10;;;;;;2253114;60;21071;-80
2022/06/04 12:52:44;;;;;;;4.50;2.70;;;23.70;47.80;;;;;;2253310;59;21075;-80
2022/06/04 12:55:22;;;;;;;6.50;2.80;;;23.70;48.50;;;;;;2252900;60;21075;-79
2022/06/04 12:57:54;;;;;;;4.62;2.90;;;23.70;48.00;;;;;;2253291;60;21091;-80
2022/06/04 13:03:41;;;;;;;2.83;2.58;;;23.80;47.40;;;;;;2357665;57;22085;-78
2022/06/04 13:06:28;;;;;;;3.55;3.05;;;23.90;48.40;;;;;;2375671;56;21371;-78
2022/06/04 13:09:04;;;;;;;3.58;3.15;;;24.00;48.10;;;;;;2400459;52;21049;-76
2022/06/04 13:11:45;;;;;;;3.30;2.55;;;24.00;47.00;;;;;;2376868;52;21562;-78
2022/06/04 13:14:25;;;;;;;3.70;2.60;;;24.10;47.40;;;;;;2375459;56;21509;-76
2022/06/04 13:16:55;;;;;;;3.97;2.20;;;24.10;45.90;;;;;;2375069;56;21036;-76
2022/06/04 13:22:28;;;;;;;4.97;2.45;;;24.20;45.80;;;;;;2334550;57;22651;-76
2022/06/04 13:24:58;;;;;;;3.33;2.50;;;24.30;46.70;;;;;;2346635;57;21109;-76
2022/06/04 13:27:37;;;;;;;5.05;2.55;;;24.30;46.90;;;;;;2347539;54;21034;-78
2022/06/04 13:30:06;;;;;;;6.47;2.53;;;24.40;46.10;;;;;;2347868;57;21088;-78
2022/06/04 13:32:34;;;;;;;3.65;2.72;;;24.50;46.60;;;;;;2347783;57;21304;-78
2022/06/04 13:35:03;;;;;;;4.80;2.45;;;24.50;47.80;;;;;;2347553;55;21050;-78
2022/06/04 13:37:34;;;;;;;4.68;2.53;;;24.50;47.00;;;;;;2347493;57;21596;-77
2022/06/04 13:42:43;;;;;;;5.20;2.30;;;24.60;46.90;;;;;;2379853;53;22161;-79
2022/06/04 13:45:26;;;;;;;4.80;2.40;;;24.60;46.20;;;;;;2345528;57;21033;-79
2022/06/04 13:47:55;;;;;;;4.12;2.25;;;24.70;46.30;;;;;;2351521;56;21118;-81
2022/06/04 13:50:25;;;;;;;3.30;2.33;;;24.70;46.20;;;;;;2375176;56;21553;-79
2022/06/04 13:52:55;;;;;;;4.07;2.33;;;24.80;46.40;;;;;;2375041;56;21173;-78
2022/06/04 13:55:30;;;;;;;3.22;2.30;;;24.80;46.30;;;;;;2413051;52;21051;-78